Hauptseite
METAR-TAF:

METAR-TAF

Flughäfen :

Militärflugplatz Florennes

Florennes, Belgien

Breite: 50-14N, Länge: 004-39E, Höhe: 279 m

Beobachtung

Neuester Wetterbericht von vor 25 Minuten, um 18:48 UTC
Wind 2 kt aus unterschiedlichen Richtungen
Temperatur 28°C
Luftfeuchtigkeit 32%
Luftdruck 1019 hPa
Sichtweite 10 km oder mehr

METAR: EBFS 061848Z AUTO VRB02KT 9999 NCD 28/10 Q1019 BLU

Zeit: 21:13 (19:13 UTC)

Prognose

Neuester Wetterbericht von vor 3 Stunden und 32 Minuten, um 15:41 UTC
Gültige Prognose vom 06 um 19 UTC bis 07 um 07 UTC
Wind 4 kt aus Ost
Sichtweite 10 km oder mehr
Aufgelockert bewölkt in der Höhe von 25000 ft

TAF: EBFS 061541Z 0619/0707 08004KT 9999 SCT250

Wetterbeobachtungen und Prognosen von mehr als 4000 Flughäfen (METAR und TAF Bericht).

Die verfügbaren Stationen werden durch gelbe und rote Markierungen auf der Karte dargestellt.

Führen Sie die Maus auf sie, um den Namen der Station zu sehen.

Darauf klicken, um die Beobachtung von Wetterbeobachtungen und Prognosen zu sehen.

Um die Karte zu ändern : klicken Sie auf den grünen Tasten mit einem schwarzen Kreuz Zum Vergrößern, auf den grünen Button mit einem Gedankenstrich zu verkleinern, oder auf die grünen Pfeile für benachbarte Karten.


METAR-TAF: